Time;durP1;ratioP1;P1;durP2;ratioP2;P2;SDS_P1;SDS_P2;PMS_P1;PMS_P2;Temp;Humidity;BMP_temperature;BMP_pressure;BME280_temperature;BME280_humidity;BME280_pressure;Samples;Min_cycle;Max_cycle;Signal;HPM_P1;HPM_P2
2023/08/09 00:00:34;;;;;;;1.10;0.80;;;22.80;48.80;;;;;;5078873;28;20036;-66
2023/08/09 00:03:01;;;;;;;0.60;0.60;;;22.80;48.80;;;;;;5079817;28;20025;-65
2023/08/09 00:05:27;;;;;;;0.80;0.70;;;22.80;48.90;;;;;;5077764;28;20028;-66
2023/08/09 00:07:53;;;;;;;1.20;0.70;;;22.80;48.80;;;;;;5079803;28;20060;-66
2023/08/09 00:10:19;;;;;;;1.00;0.80;;;22.80;48.90;;;;;;5081780;28;20036;-66
2023/08/09 00:12:44;;;;;;;0.90;0.80;;;22.80;48.90;;;;;;5077546;28;20545;-67
2023/08/09 00:15:10;;;;;;;1.20;0.80;;;22.80;48.90;;;;;;5077777;28;20539;-67
2023/08/09 00:17:36;;;;;;;0.88;0.80;;;22.80;48.90;;;;;;5078049;28;20037;-66
2023/08/09 00:20:02;;;;;;;0.75;0.70;;;22.80;49.40;;;;;;5079804;28;20029;-66
2023/08/09 00:22:28;;;;;;;1.15;0.77;;;22.80;48.90;;;;;;5078716;28;20133;-66
2023/08/09 00:24:53;;;;;;;1.30;0.60;;;22.80;48.90;;;;;;5079428;28;20748;-68
2023/08/09 00:27:19;;;;;;;1.27;0.60;;;22.80;48.90;;;;;;5080144;28;20123;-66
2023/08/09 00:29:45;;;;;;;1.15;0.70;;;22.80;48.90;;;;;;5080005;28;20468;-66
2023/08/09 00:32:10;;;;;;;1.15;0.70;;;22.80;48.90;;;;;;5080070;28;20027;-67
2023/08/09 00:34:36;;;;;;;0.57;0.57;;;22.80;48.90;;;;;;5077458;28;20111;-66
2023/08/09 00:37:01;;;;;;;0.80;0.60;;;22.80;48.90;;;;;;5078569;28;20042;-67
2023/08/09 00:39:27;;;;;;;0.80;0.70;;;22.80;49.00;;;;;;5077909;28;20534;-67
2023/08/09 00:41:53;;;;;;;0.90;0.70;;;22.80;48.90;;;;;;5061991;28;20063;-71
2023/08/09 00:44:18;;;;;;;1.08;0.80;;;22.80;48.90;;;;;;5078106;28;20052;-69
2023/08/09 00:46:44;;;;;;;1.38;0.80;;;22.80;49.00;;;;;;5077848;28;20024;-69
2023/08/09 00:49:10;;;;;;;1.60;0.82;;;22.80;49.00;;;;;;5058440;28;20146;-68
2023/08/09 00:51:36;;;;;;;0.60;0.60;;;22.80;49.00;;;;;;5077320;28;20099;-70
2023/08/09 00:54:01;;;;;;;0.73;0.70;;;22.80;49.00;;;;;;5078272;28;20051;-68
2023/08/09 00:56:27;;;;;;;0.90;0.65;;;22.80;49.00;;;;;;5063474;28;20036;-69
2023/08/09 00:58:53;;;;;;;1.02;0.70;;;22.70;49.00;;;;;;5077952;28;20090;-68
2023/08/09 01:01:19;;;;;;;0.60;0.60;;;22.80;49.00;;;;;;5077347;28;20540;-68
2023/08/09 01:03:44;;;;;;;1.13;0.75;;;22.80;49.00;;;;;;5077806;28;20021;-69
2023/08/09 01:06:48;;;;;;;0.60;0.60;;;22.70;49.00;;;;;;5077851;28;20040;-69
2023/08/09 01:09:26;;;;;;;0.95;0.70;;;22.70;49.50;;;;;;5039998;28;20526;-69
2023/08/09 01:12:00;;;;;;;0.70;0.60;;;22.70;49.00;;;;;;5078760;28;20099;-66
2023/08/09 01:14:28;;;;;;;1.13;0.70;;;22.70;49.00;;;;;;5079018;28;20113;-66
2023/08/09 01:16:57;;;;;;;0.95;0.70;;;22.70;49.00;;;;;;5076919;28;20020;-67
2023/08/09 01:19:35;;;;;;;0.75;0.68;;;22.70;49.00;;;;;;5077047;28;20028;-66
2023/08/09 01:22:16;;;;;;;0.80;0.80;;;22.70;49.10;;;;;;5078029;28;20025;-66
2023/08/09 01:24:43;;;;;;;0.75;0.63;;;22.70;49.00;;;;;;5079159;28;20029;-66
2023/08/09 01:27:09;;;;;;;0.60;0.60;;;22.70;49.10;;;;;;5078147;28;20361;-65
2023/08/09 01:29:36;;;;;;;0.85;0.80;;;22.70;49.10;;;;;;5078475;28;20032;-65
2023/08/09 01:32:02;;;;;;;0.50;0.50;;;22.70;49.10;;;;;;5078303;28;20050;-65
2023/08/09 01:34:28;;;;;;;0.65;0.60;;;22.70;49.10;;;;;;5077626;28;20021;-64
2023/08/09 01:36:58;;;;;;;0.80;0.60;;;22.70;49.10;;;;;;5062053;28;20031;-66
2023/08/09 01:39:27;;;;;;;0.50;0.50;;;22.70;49.10;;;;;;5077432;28;20490;-66
2023/08/09 01:41:53;;;;;;;1.00;0.70;;;22.70;49.10;;;;;;5078805;28;20024;-65
2023/08/09 01:44:20;;;;;;;0.80;0.57;;;22.70;49.10;;;;;;5077564;28;20028;-65
2023/08/09 01:46:46;;;;;;;0.80;0.60;;;22.70;49.10;;;;;;5079217;28;20491;-67
2023/08/09 01:49:14;;;;;;;0.98;0.60;;;22.70;49.10;;;;;;5076548;28;20028;-65
2023/08/09 01:51:40;;;;;;;0.90;0.50;;;22.70;49.10;;;;;;5075284;28;20665;-66
2023/08/09 01:54:07;;;;;;;0.85;0.65;;;22.70;49.10;;;;;;5077824;28;20480;-66
2023/08/09 01:56:33;;;;;;;1.30;0.60;;;22.70;49.10;;;;;;5077582;28;20012;-65
2023/08/09 01:58:59;;;;;;;0.60;0.60;;;22.70;49.10;;;;;;5077752;28;20043;-65
2023/08/09 02:01:25;;;;;;;0.60;0.60;;;22.70;49.10;;;;;;5078776;28;20036;-66
2023/08/09 02:03:53;;;;;;;0.93;0.70;;;22.70;49.10;;;;;;5061120;28;20086;-65
2023/08/09 02:06:18;;;;;;;0.80;0.60;;;22.70;49.10;;;;;;5077116;28;20048;-65
2023/08/09 02:08:44;;;;;;;0.85;0.70;;;22.70;49.10;;;;;;5078526;28;20537;-65
2023/08/09 02:11:10;;;;;;;0.75;0.60;;;22.70;49.10;;;;;;5077729;28;20159;-65
2023/08/09 02:13:36;;;;;;;0.65;0.52;;;22.70;49.10;;;;;;5078918;28;20119;-65
2023/08/09 02:16:04;;;;;;;0.60;0.60;;;22.70;49.10;;;;;;5077487;28;20028;-67
2023/08/09 02:18:30;;;;;;;0.70;0.52;;;22.70;49.10;;;;;;5077042;28;20127;-66
2023/08/09 02:20:56;;;;;;;0.70;0.60;;;22.60;49.00;;;;;;5076628;28;20535;-65
2023/08/09 02:23:24;;;;;;;0.63;0.60;;;22.70;49.10;;;;;;5077792;28;20021;-68
2023/08/09 02:25:52;;;;;;;0.63;0.60;;;22.70;49.10;;;;;;5076557;28;20027;-67
2023/08/09 02:28:17;;;;;;;0.68;0.60;;;22.60;49.00;;;;;;5077288;28;20392;-68
2023/08/09 02:30:43;;;;;;;0.68;0.68;;;22.60;49.00;;;;;;5065164;28;20027;-67
2023/08/09 02:33:08;;;;;;;0.52;0.50;;;22.70;49.10;;;;;;5083134;28;20029;-67
2023/08/09 02:35:57;;;;;;;0.60;0.60;;;22.70;49.10;;;;;;5079060;28;20071;-68
2023/08/09 02:38:24;;;;;;;0.95;0.60;;;22.60;49.00;;;;;;5063234;28;20105;-68
2023/08/09 02:40:50;;;;;;;0.60;0.60;;;22.70;49.10;;;;;;5079601;28;20131;-68
2023/08/09 02:43:17;;;;;;;0.55;0.55;;;22.60;49.00;;;;;;5080718;28;20103;-68
2023/08/09 02:45:44;;;;;;;0.68;0.68;;;22.60;49.00;;;;;;5080891;28;20024;-69
2023/08/09 02:48:10;;;;;;;0.82;0.60;;;22.60;49.00;;;;;;5080710;28;20054;-67
2023/08/09 02:50:36;;;;;;;0.57;0.50;;;22.60;49.00;;;;;;5080231;28;20024;-67
2023/08/09 02:53:03;;;;;;;0.57;0.57;;;22.60;49.10;;;;;;5080625;28;20462;-68
2023/08/09 02:55:30;;;;;;;0.60;0.60;;;22.60;49.10;;;;;;5079749;28;20495;-68
2023/08/09 02:57:55;;;;;;;1.48;0.60;;;22.60;49.10;;;;;;5081893;28;20069;-68
2023/08/09 03:00:21;;;;;;;0.80;0.70;;;22.60;49.10;;;;;;5081262;28;20534;-68
2023/08/09 03:02:46;;;;;;;0.70;0.60;;;22.60;49.10;;;;;;5071775;28;20027;-66
2023/08/09 03:05:12;;;;;;;0.80;0.60;;;22.60;49.10;;;;;;5082584;28;20605;-67
2023/08/09 03:07:38;;;;;;;0.50;0.50;;;22.60;49.10;;;;;;5079510;28;20096;-66
2023/08/09 03:10:04;;;;;;;0.88;0.50;;;22.60;49.10;;;;;;5082500;28;20476;-67
2023/08/09 03:12:30;;;;;;;0.63;0.55;;;22.60;49.10;;;;;;5081394;28;20021;-68
2023/08/09 03:14:56;;;;;;;0.52;0.50;;;22.60;49.10;;;;;;5082452;28;20091;-68
2023/08/09 03:17:21;;;;;;;0.73;0.65;;;22.60;49.20;;;;;;5080768;28;20036;-68
2023/08/09 03:19:49;;;;;;;0.75;0.70;;;22.60;49.20;;;;;;5080875;28;20099;-68
2023/08/09 03:22:15;;;;;;;0.65;0.65;;;22.60;49.20;;;;;;5081394;28;20036;-68
2023/08/09 03:24:41;;;;;;;0.60;0.60;;;22.60;49.20;;;;;;5080613;28;20377;-66
2023/08/09 03:27:07;;;;;;;0.60;0.60;;;22.60;49.20;;;;;;5080570;28;20020;-67
2023/08/09 03:29:32;;;;;;;0.60;0.60;;;22.60;49.20;;;;;;5078186;28;20056;-67
2023/08/09 03:31:58;;;;;;;0.65;0.60;;;22.60;49.20;;;;;;5082549;28;20021;-67
2023/08/09 03:34:23;;;;;;;0.77;0.50;;;22.60;49.20;;;;;;5079830;28;20530;-67
2023/08/09 03:36:49;;;;;;;0.52;0.50;;;22.60;49.20;;;;;;5078753;28;20024;-67
2023/08/09 03:39:15;;;;;;;0.65;0.65;;;22.60;49.20;;;;;;5079674;28;20036;-67
2023/08/09 03:41:41;;;;;;;0.70;0.70;;;22.60;49.20;;;;;;5079413;28;20450;-67
2023/08/09 03:44:07;;;;;;;0.80;0.70;;;22.60;49.20;;;;;;5076912;28;20095;-67
2023/08/09 03:46:34;;;;;;;0.60;0.57;;;22.60;49.20;;;;;;5078637;28;20123;-68
2023/08/09 03:49:00;;;;;;;0.52;0.52;;;22.60;49.20;;;;;;5079602;28;20075;-67
2023/08/09 03:51:25;;;;;;;0.57;0.57;;;22.60;49.20;;;;;;5079198;28;20158;-67
2023/08/09 03:53:51;;;;;;;0.82;0.60;;;22.60;49.30;;;;;;5078982;28;20442;-67
2023/08/09 03:56:17;;;;;;;0.75;0.70;;;22.60;49.20;;;;;;5079695;28;20025;-67
2023/08/09 03:58:42;;;;;;;0.60;0.50;;;22.60;49.20;;;;;;5081326;28;20039;-67
2023/08/09 04:01:08;;;;;;;0.60;0.60;;;22.60;49.20;;;;;;5080451;28;20039;-67
2023/08/09 04:03:33;;;;;;;0.65;0.50;;;22.60;49.20;;;;;;5060978;28;20029;-67
2023/08/09 04:06:01;;;;;;;0.60;0.60;;;22.60;49.20;;;;;;5078368;28;20120;-68
2023/08/09 04:08:27;;;;;;;0.60;0.60;;;22.60;49.30;;;;;;5062557;28;20060;-68
2023/08/09 04:10:54;;;;;;;0.60;0.60;;;22.60;49.30;;;;;;5078275;28;20045;-68
2023/08/09 04:13:20;;;;;;;0.60;0.50;;;22.60;49.30;;;;;;5078128;28;20081;-65
2023/08/09 04:15:46;;;;;;;0.60;0.60;;;22.60;49.30;;;;;;5062470;28;20028;-65
2023/08/09 04:18:14;;;;;;;0.60;0.60;;;22.60;49.30;;;;;;5079670;28;20054;-65
2023/08/09 04:20:40;;;;;;;0.60;0.60;;;22.60;49.30;;;;;;5080393;28;20112;-67
2023/08/09 04:23:06;;;;;;;1.00;0.70;;;22.60;49.30;;;;;;5076060;28;20033;-66
2023/08/09 04:25:32;;;;;;;0.90;0.60;;;22.60;49.30;;;;;;5078806;28;20043;-66
2023/08/09 04:27:59;;;;;;;0.70;0.60;;;22.60;49.30;;;;;;5079939;28;20483;-67
2023/08/09 04:30:25;;;;;;;0.50;0.50;;;22.60;49.30;;;;;;5078230;28;20021;-65
2023/08/09 04:32:52;;;;;;;0.57;0.57;;;22.60;49.30;;;;;;5080013;28;20024;-67
2023/08/09 04:35:18;;;;;;;0.50;0.40;;;22.50;49.30;;;;;;5078692;28;20099;-67
2023/08/09 04:37:44;;;;;;;0.70;0.65;;;22.60;49.40;;;;;;5078204;28;20031;-66
2023/08/09 04:40:10;;;;;;;0.50;0.50;;;22.60;49.30;;;;;;5079457;28;20034;-66
2023/08/09 04:42:47;;;;;;;0.60;0.60;;;22.50;49.30;;;;;;5081271;28;20119;-68
2023/08/09 04:45:13;;;;;;;0.52;0.50;;;22.50;49.30;;;;;;5077975;28;20424;-68
2023/08/09 04:47:39;;;;;;;0.77;0.60;;;22.50;49.30;;;;;;5079426;28;20024;-68
2023/08/09 04:50:06;;;;;;;0.47;0.47;;;22.50;49.30;;;;;;5077293;28;20020;-67
2023/08/09 04:52:34;;;;;;;0.80;0.63;;;22.50;49.30;;;;;;5076525;28;20024;-67
2023/08/09 04:55:00;;;;;;;0.70;0.60;;;22.50;49.30;;;;;;5064776;28;20040;-67
2023/08/09 04:57:26;;;;;;;0.50;0.50;;;22.50;49.30;;;;;;5079432;28;20399;-67
2023/08/09 04:59:52;;;;;;;0.75;0.65;;;22.60;49.40;;;;;;5077061;28;20035;-67
2023/08/09 05:02:17;;;;;;;0.50;0.50;;;22.50;49.30;;;;;;5076705;28;20040;-67
2023/08/09 05:04:43;;;;;;;0.63;0.60;;;22.50;49.30;;;;;;5077159;28;20033;-68
2023/08/09 05:07:09;;;;;;;0.68;0.60;;;22.50;49.30;;;;;;5077363;28;20027;-67
2023/08/09 05:09:35;;;;;;;0.60;0.52;;;22.50;49.30;;;;;;5078958;28;20031;-67
2023/08/09 05:12:00;;;;;;;0.80;0.60;;;22.50;49.40;;;;;;5077843;28;20067;-67
2023/08/09 05:14:26;;;;;;;0.80;0.60;;;22.50;49.40;;;;;;5077464;28;20443;-67
2023/08/09 05:16:53;;;;;;;0.60;0.60;;;22.50;49.30;;;;;;5080107;28;20024;-67
2023/08/09 05:19:20;;;;;;;0.50;0.50;;;22.50;49.30;;;;;;5062767;28;20024;-68
2023/08/09 05:21:45;;;;;;;0.60;0.50;;;22.50;49.40;;;;;;5077298;28;20073;-67
2023/08/09 05:24:12;;;;;;;0.60;0.60;;;22.50;49.40;;;;;;5078303;28;20020;-67
2023/08/09 05:26:38;;;;;;;0.85;0.50;;;22.50;49.40;;;;;;5063462;28;20059;-67
2023/08/09 05:29:03;;;;;;;0.50;0.50;;;22.50;49.90;;;;;;5077400;28;20060;-67
2023/08/09 05:31:29;;;;;;;0.57;0.57;;;22.50;49.40;;;;;;5078698;28;20024;-67
2023/08/09 05:33:56;;;;;;;0.57;0.55;;;22.50;49.40;;;;;;5078206;28;20534;-68
2023/08/09 05:36:22;;;;;;;0.57;0.47;;;22.50;49.40;;;;;;5078167;28;20048;-68
2023/08/09 05:38:48;;;;;;;0.60;0.60;;;22.50;49.40;;;;;;5079349;28;20028;-68
2023/08/09 05:41:13;;;;;;;0.50;0.50;;;22.50;49.40;;;;;;5079661;28;20093;-67
2023/08/09 05:43:39;;;;;;;0.50;0.50;;;22.50;49.40;;;;;;5076500;28;20038;-68
2023/08/09 05:46:05;;;;;;;0.50;0.50;;;22.50;49.40;;;;;;5059560;28;20037;-67
2023/08/09 05:48:30;;;;;;;0.50;0.50;;;22.50;49.40;;;;;;5077419;28;20082;-67
2023/08/09 05:50:56;;;;;;;0.90;0.50;;;22.50;49.40;;;;;;5075193;28;20052;-67
2023/08/09 05:53:22;;;;;;;0.57;0.50;;;22.50;49.40;;;;;;5059041;28;20115;-68
2023/08/09 05:55:47;;;;;;;0.50;0.50;;;22.50;49.40;;;;;;5077573;28;20480;-67
2023/08/09 05:58:14;;;;;;;0.50;0.50;;;22.50;49.50;;;;;;5078453;28;20392;-67
2023/08/09 06:00:40;;;;;;;0.50;0.50;;;22.50;49.50;;;;;;5077447;28;20504;-67
2023/08/09 06:03:06;;;;;;;0.77;0.63;;;22.50;49.50;;;;;;5077803;28;20115;-66
2023/08/09 06:05:32;;;;;;;0.55;0.55;;;22.50;49.40;;;;;;5080541;28;20028;-68
2023/08/09 06:07:58;;;;;;;0.50;0.50;;;22.50;49.50;;;;;;5079879;28;20686;-66
2023/08/09 06:10:25;;;;;;;0.50;0.50;;;22.50;49.50;;;;;;5081740;28;20023;-67
2023/08/09 06:12:50;;;;;;;0.70;0.55;;;22.50;49.50;;;;;;5080774;28;20055;-68
2023/08/09 06:15:17;;;;;;;0.60;0.60;;;22.50;49.50;;;;;;5067616;28;20056;-68
2023/08/09 06:17:43;;;;;;;0.40;0.40;;;22.50;49.50;;;;;;5082534;28;20778;-68
2023/08/09 06:20:12;;;;;;;0.60;0.60;;;22.50;49.50;;;;;;5080020;28;20089;-68
2023/08/09 06:22:38;;;;;;;0.50;0.50;;;22.50;49.50;;;;;;5079615;28;20186;-67
2023/08/09 06:25:05;;;;;;;0.90;0.52;;;22.40;49.50;;;;;;5080071;28;20036;-67
2023/08/09 06:27:31;;;;;;;1.30;0.70;;;22.40;49.50;;;;;;5061813;28;20054;-67
2023/08/09 06:29:56;;;;;;;0.50;0.50;;;22.50;49.50;;;;;;5079801;28;20060;-67
2023/08/09 06:32:22;;;;;;;0.50;0.50;;;22.50;49.60;;;;;;5079205;28;20025;-67
2023/08/09 06:34:48;;;;;;;0.88;0.60;;;22.50;49.60;;;;;;5081272;28;20051;-67
2023/08/09 06:37:13;;;;;;;0.63;0.60;;;22.40;49.50;;;;;;5078524;28;20033;-67
2023/08/09 06:39:39;;;;;;;0.50;0.50;;;22.50;49.60;;;;;;5077824;28;20483;-67
2023/08/09 06:42:05;;;;;;;0.60;0.60;;;22.40;49.60;;;;;;5080993;28;20031;-67
2023/08/09 06:44:30;;;;;;;0.50;0.50;;;22.50;49.60;;;;;;5081439;28;20039;-67
2023/08/09 06:46:56;;;;;;;0.50;0.50;;;22.40;49.60;;;;;;5081225;28;20074;-67
2023/08/09 06:49:22;;;;;;;0.60;0.60;;;22.40;49.60;;;;;;5082885;28;20034;-67
2023/08/09 06:51:48;;;;;;;0.57;0.55;;;22.40;49.60;;;;;;5080794;28;20115;-67
2023/08/09 06:54:14;;;;;;;0.52;0.50;;;22.40;49.60;;;;;;5078842;28;20485;-66
2023/08/09 06:56:40;;;;;;;0.70;0.55;;;22.50;49.70;;;;;;5082389;28;20049;-67
2023/08/09 06:59:06;;;;;;;0.90;0.60;;;22.40;49.70;;;;;;5079584;28;20028;-67
2023/08/09 07:01:32;;;;;;;1.38;0.70;;;22.40;49.60;;;;;;5081436;28;20360;-66
2023/08/09 07:03:57;;;;;;;0.60;0.60;;;22.40;49.70;;;;;;5080341;28;20032;-66
2023/08/09 07:06:24;;;;;;;0.55;0.50;;;22.40;49.70;;;;;;5080361;28;20024;-66
2023/08/09 07:08:53;;;;;;;0.60;0.60;;;22.40;49.70;;;;;;5081053;28;20032;-66
2023/08/09 07:11:22;;;;;;;0.60;0.60;;;22.40;49.90;;;;;;5082423;28;20379;-67
2023/08/09 07:13:47;;;;;;;0.50;0.50;;;22.40;49.70;;;;;;5080512;28;20025;-66
2023/08/09 07:16:13;;;;;;;0.75;0.60;;;22.40;49.70;;;;;;5078271;28;20070;-66
2023/08/09 07:18:39;;;;;;;0.60;0.60;;;22.40;49.70;;;;;;5081830;28;20479;-65
2023/08/09 07:21:04;;;;;;;0.80;0.63;;;22.40;49.70;;;;;;5079640;28;20056;-65
2023/08/09 07:23:31;;;;;;;1.00;0.70;;;22.40;50.40;;;;;;5079928;28;20028;-66
2023/08/09 07:25:57;;;;;;;0.98;0.65;;;22.40;49.80;;;;;;5064917;28;20038;-66
2023/08/09 07:28:22;;;;;;;0.70;0.70;;;22.40;49.80;;;;;;5082126;28;20036;-66
2023/08/09 07:30:50;;;;;;;0.80;0.70;;;22.40;49.90;;;;;;5077820;28;20107;-66
2023/08/09 07:33:16;;;;;;;1.00;0.80;;;22.40;49.90;;;;;;5081788;28;20028;-66
2023/08/09 07:35:42;;;;;;;0.82;0.70;;;22.40;49.90;;;;;;5080044;28;20097;-66
2023/08/09 07:38:07;;;;;;;0.60;0.60;;;22.40;50.00;;;;;;5077185;28;20028;-66
2023/08/09 07:40:33;;;;;;;1.08;0.65;;;22.40;50.00;;;;;;5079767;28;20035;-66
2023/08/09 07:43:00;;;;;;;0.90;0.70;;;22.40;50.00;;;;;;5079180;28;20039;-67
2023/08/09 07:45:26;;;;;;;1.20;0.70;;;22.40;50.00;;;;;;5080133;28;20746;-65
2023/08/09 07:47:51;;;;;;;0.65;0.55;;;22.40;50.00;;;;;;5078606;28;20054;-66
2023/08/09 07:50:17;;;;;;;0.90;0.73;;;22.40;50.10;;;;;;5080865;28;20039;-66
2023/08/09 07:52:43;;;;;;;0.90;0.60;;;22.40;50.10;;;;;;5061912;28;20052;-67
2023/08/09 07:55:09;;;;;;;1.00;0.70;;;22.40;50.10;;;;;;5077590;28;20445;-67
2023/08/09 07:57:35;;;;;;;0.82;0.60;;;22.40;50.10;;;;;;5079768;28;20029;-66
2023/08/09 08:00:05;;;;;;;0.90;0.70;;;22.40;50.10;;;;;;5066883;28;20028;-67
2023/08/09 08:02:31;;;;;;;0.82;0.60;;;22.40;50.10;;;;;;5080892;28;20391;-67
2023/08/09 08:04:56;;;;;;;1.05;0.70;;;22.40;50.20;;;;;;5079546;28;20024;-66
2023/08/09 08:07:23;;;;;;;0.77;0.70;;;22.40;50.20;;;;;;5078906;28;20481;-67
2023/08/09 08:09:49;;;;;;;0.70;0.70;;;22.40;50.20;;;;;;5078661;28;20617;-66
2023/08/09 08:12:15;;;;;;;1.00;0.80;;;22.40;50.20;;;;;;5078437;28;20937;-67
2023/08/09 08:14:41;;;;;;;0.68;0.65;;;22.40;50.20;;;;;;5082102;28;20016;-67
2023/08/09 08:17:06;;;;;;;0.75;0.65;;;22.40;50.30;;;;;;5079176;28;20108;-67
2023/08/09 08:19:32;;;;;;;0.70;0.60;;;22.40;50.30;;;;;;5079084;28;20024;-67
2023/08/09 08:21:58;;;;;;;2.03;0.70;;;22.40;50.20;;;;;;5080111;28;20110;-67
2023/08/09 08:24:24;;;;;;;0.90;0.60;;;22.40;50.30;;;;;;5077859;28;20541;-66
2023/08/09 08:26:53;;;;;;;1.17;0.80;;;22.40;50.30;;;;;;5061844;28;20070;-66
2023/08/09 08:29:19;;;;;;;0.60;0.60;;;22.40;50.30;;;;;;5079288;28;20106;-67
2023/08/09 08:31:44;;;;;;;1.00;0.68;;;22.40;50.30;;;;;;5080601;28;20210;-66
2023/08/09 08:34:10;;;;;;;0.88;0.73;;;22.40;50.30;;;;;;5078283;28;20024;-65
2023/08/09 08:36:36;;;;;;;1.35;0.73;;;22.40;50.40;;;;;;5080338;28;20032;-65
2023/08/09 08:39:05;;;;;;;0.60;0.60;;;22.30;50.30;;;;;;5078149;28;20119;-66
2023/08/09 08:41:31;;;;;;;0.95;0.73;;;22.40;50.40;;;;;;5077778;28;20093;-66
2023/08/09 08:43:56;;;;;;;0.68;0.68;;;22.40;50.40;;;;;;5062328;28;20498;-66
2023/08/09 08:46:26;;;;;;;2.13;0.80;;;22.30;50.30;;;;;;5076056;28;20016;-65
2023/08/09 08:48:56;;;;;;;0.88;0.65;;;22.40;50.40;;;;;;5064281;28;20036;-66
2023/08/09 08:51:25;;;;;;;0.70;0.60;;;22.30;50.30;;;;;;5080185;28;20036;-66
2023/08/09 08:53:52;;;;;;;0.90;0.70;;;22.40;50.40;;;;;;5075499;28;20017;-66
2023/08/09 08:56:18;;;;;;;1.20;0.70;;;22.30;50.30;;;;;;5079467;28;20040;-65
2023/08/09 08:58:44;;;;;;;1.15;0.73;;;22.40;50.40;;;;;;5079015;28;20468;-66
2023/08/09 09:01:11;;;;;;;0.80;0.70;;;22.30;50.30;;;;;;5061779;28;20396;-66
2023/08/09 09:03:37;;;;;;;0.70;0.68;;;22.30;50.40;;;;;;5078616;28;20064;-66
2023/08/09 09:06:02;;;;;;;0.75;0.70;;;22.30;50.40;;;;;;5080078;28;20428;-66
2023/08/09 09:08:28;;;;;;;1.33;0.90;;;22.30;50.40;;;;;;5078465;28;20020;-66
2023/08/09 09:10:54;;;;;;;1.55;0.90;;;22.40;50.40;;;;;;5077507;28;20024;-65
2023/08/09 09:13:28;;;;;;;1.40;0.80;;;22.30;50.40;;;;;;5078447;28;20031;-65
2023/08/09 09:15:54;;;;;;;1.05;0.70;;;22.40;50.50;;;;;;5078439;28;20368;-66
2023/08/09 09:18:21;;;;;;;1.00;0.73;;;22.30;50.50;;;;;;5078218;28;20036;-65
2023/08/09 09:20:47;;;;;;;1.73;0.90;;;22.30;50.40;;;;;;5078434;28;20024;-65
2023/08/09 09:23:31;;;;;;;0.85;0.70;;;22.30;50.50;;;;;;5077151;28;20050;-66
2023/08/09 09:26:11;;;;;;;1.17;0.77;;;22.30;50.50;;;;;;5077084;28;20032;-66
2023/08/09 09:28:47;;;;;;;1.67;0.90;;;22.30;50.50;;;;;;5061373;28;20021;-65
2023/08/09 09:31:17;;;;;;;1.42;0.80;;;22.30;51.00;;;;;;5078727;28;20032;-65
2023/08/09 09:33:51;;;;;;;1.25;0.80;;;22.30;50.50;;;;;;5078198;28;20020;-66
2023/08/09 09:36:18;;;;;;;1.10;0.80;;;22.30;50.50;;;;;;5062519;28;20028;-66
2023/08/09 09:38:44;;;;;;;1.20;0.80;;;22.40;50.60;;;;;;5075488;28;20551;-65
2023/08/09 09:41:13;;;;;;;1.33;0.80;;;22.30;50.50;;;;;;5076156;28;20396;-66
2023/08/09 09:43:43;;;;;;;1.15;0.93;;;22.30;50.50;;;;;;5076725;28;20187;-66
2023/08/09 09:46:18;;;;;;;1.50;0.90;;;22.30;50.50;;;;;;5078434;28;20031;-66
2023/08/09 09:48:48;;;;;;;1.25;0.90;;;22.30;50.60;;;;;;5077927;28;20102;-66
2023/08/09 09:51:19;;;;;;;1.60;0.90;;;22.30;50.60;;;;;;5077684;28;20016;-66
2023/08/09 09:53:46;;;;;;;0.93;0.68;;;22.30;50.60;;;;;;5076824;28;20048;-65
2023/08/09 09:56:13;;;;;;;1.15;0.80;;;22.40;50.70;;;;;;5061387;28;20043;-66
2023/08/09 09:58:40;;;;;;;1.35;0.70;;;22.30;50.70;;;;;;5077913;28;20105;-66
2023/08/09 10:01:08;;;;;;;1.80;0.90;;;22.30;50.70;;;;;;5059228;28;20033;-66
2023/08/09 10:03:39;;;;;;;1.52;0.90;;;22.30;50.70;;;;;;5078180;28;20031;-66
2023/08/09 10:06:13;;;;;;;1.48;0.90;;;22.30;50.70;;;;;;5077504;28;20031;-66
2023/08/09 10:08:40;;;;;;;2.03;1.00;;;22.30;50.80;;;;;;5077276;28;20569;-66
2023/08/09 10:11:08;;;;;;;2.08;0.98;;;22.30;50.80;;;;;;5077858;28;20371;-67
2023/08/09 10:13:36;;;;;;;2.15;0.80;;;22.30;50.80;;;;;;5077181;28;20016;-67
2023/08/09 10:16:05;;;;;;;1.05;0.80;;;22.30;50.80;;;;;;5061929;28;20407;-67
2023/08/09 10:18:39;;;;;;;1.30;0.90;;;22.30;50.90;;;;;;5078982;28;20028;-66
2023/08/09 10:21:06;;;;;;;1.13;0.80;;;22.30;50.90;;;;;;5078567;28;20661;-67
2023/08/09 10:23:32;;;;;;;1.58;0.90;;;22.30;50.90;;;;;;5076945;28;20024;-67
2023/08/09 10:25:58;;;;;;;1.95;1.00;;;22.30;51.00;;;;;;5077063;28;20032;-66
2023/08/09 10:28:40;;;;;;;1.33;0.90;;;22.30;51.00;;;;;;5080247;28;20171;-66
2023/08/09 10:31:06;;;;;;;1.77;1.00;;;22.30;51.10;;;;;;5079975;28;20013;-66
2023/08/09 10:33:32;;;;;;;1.80;1.00;;;22.30;51.00;;;;;;5077749;28;20032;-66
2023/08/09 10:35:58;;;;;;;1.83;1.02;;;22.30;51.10;;;;;;5058893;28;20040;-65
2023/08/09 10:38:32;;;;;;;1.67;0.98;;;22.30;51.20;;;;;;5077090;28;20032;-66
2023/08/09 10:41:06;;;;;;;1.40;0.85;;;22.30;51.30;;;;;;5058232;28;20047;-65
2023/08/09 10:43:33;;;;;;;1.23;0.90;;;22.30;51.30;;;;;;5077836;28;20416;-67
2023/08/09 10:46:25;;;;;;;2.03;1.00;;;22.30;51.30;;;;;;5077671;28;20033;-67
2023/08/09 10:48:52;;;;;;;2.38;1.30;;;22.30;51.50;;;;;;5077011;28;20414;-67
2023/08/09 10:51:21;;;;;;;1.67;1.00;;;22.30;51.40;;;;;;5080539;28;20325;-67
2023/08/09 10:54:04;;;;;;;1.67;0.98;;;22.30;51.40;;;;;;5081085;28;20085;-67
2023/08/09 10:56:40;;;;;;;1.10;0.88;;;22.30;51.60;;;;;;5078931;28;20526;-67
2023/08/09 10:59:09;;;;;;;1.60;1.00;;;22.30;51.50;;;;;;5080547;28;20081;-67
2023/08/09 11:01:36;;;;;;;2.03;0.82;;;22.30;51.50;;;;;;5078274;28;20529;-67
2023/08/09 11:04:07;;;;;;;1.67;0.90;;;22.30;51.60;;;;;;5078410;28;20487;-66
2023/08/09 11:06:38;;;;;;;1.40;0.90;;;22.30;51.60;;;;;;5078818;28;20364;-66
2023/08/09 11:09:18;;;;;;;1.13;0.80;;;22.30;51.60;;;;;;5080490;28;20451;-67
2023/08/09 11:11:46;;;;;;;2.80;0.90;;;22.30;51.60;;;;;;5078808;28;20024;-67
2023/08/09 11:14:13;;;;;;;1.80;0.90;;;22.30;51.60;;;;;;5079435;28;20028;-66
2023/08/09 11:16:39;;;;;;;2.40;1.00;;;22.30;51.60;;;;;;5079983;28;20024;-66
2023/08/09 11:19:09;;;;;;;1.40;0.95;;;22.30;51.60;;;;;;5064536;28;20131;-67
2023/08/09 11:21:37;;;;;;;;;;;22.30;51.70;;;;;;5081382;28;20031;-66
2023/08/09 11:24:03;;;;;;;1.40;0.90;;;22.30;51.70;;;;;;5079997;28;19988;-66
2023/08/09 11:26:29;;;;;;;1.05;0.80;;;22.30;51.60;;;;;;5080284;28;20434;-66
2023/08/09 11:28:54;;;;;;;1.17;0.90;;;22.30;51.70;;;;;;5081567;28;20062;-66
2023/08/09 11:31:21;;;;;;;1.85;0.90;;;22.30;51.70;;;;;;5081777;28;20407;-68
2023/08/09 11:33:48;;;;;;;2.05;1.10;;;22.30;51.70;;;;;;5079535;28;20024;-67
2023/08/09 11:36:14;;;;;;;1.70;0.95;;;22.30;51.70;;;;;;5064978;28;20032;-67
2023/08/09 11:38:40;;;;;;;2.25;0.90;;;22.30;51.70;;;;;;5063361;28;20074;-66
2023/08/09 11:41:06;;;;;;;1.65;0.90;;;22.30;51.70;;;;;;5079002;28;20036;-66
2023/08/09 11:43:32;;;;;;;2.33;1.08;;;22.30;51.70;;;;;;5080747;28;20032;-67
2023/08/09 11:45:57;;;;;;;1.40;0.95;;;22.30;51.70;;;;;;5081199;28;20379;-67
2023/08/09 11:48:31;;;;;;;1.70;1.00;;;22.30;51.60;;;;;;5081796;28;20020;-66
2023/08/09 11:51:06;;;;;;;1.40;0.90;;;22.30;51.60;;;;;;5080706;28;20145;-66
2023/08/09 11:53:33;;;;;;;1.40;0.93;;;22.30;51.60;;;;;;5081090;28;20054;-69
2023/08/09 11:56:00;;;;;;;1.60;0.98;;;22.30;52.10;;;;;;5080439;28;20036;-66
2023/08/09 11:58:26;;;;;;;0.95;0.85;;;22.30;51.60;;;;;;5062562;28;20123;-66
2023/08/09 12:00:52;;;;;;;0.90;0.80;;;22.30;51.60;;;;;;5080641;28;20096;-66
2023/08/09 12:03:21;;;;;;;1.95;0.90;;;22.30;51.70;;;;;;5081296;28;20044;-67
2023/08/09 12:05:47;;;;;;;1.92;0.90;;;22.40;51.80;;;;;;5080576;28;20032;-67
2023/08/09 12:08:12;;;;;;;1.38;1.00;;;22.30;51.70;;;;;;5080413;28;20078;-66
2023/08/09 12:10:42;;;;;;;1.75;1.13;;;22.30;51.70;;;;;;5082118;28;20060;-67
2023/08/09 12:13:09;;;;;;;2.05;0.90;;;22.30;51.70;;;;;;5077810;28;20050;-67
2023/08/09 12:15:35;;;;;;;1.65;1.00;;;22.30;51.70;;;;;;5077951;28;20471;-67
2023/08/09 12:18:01;;;;;;;1.85;0.90;;;22.30;51.70;;;;;;5079414;28;20099;-66
2023/08/09 12:20:27;;;;;;;1.23;0.77;;;22.30;51.70;;;;;;5078857;28;20027;-66
2023/08/09 12:22:53;;;;;;;1.13;0.90;;;22.30;51.70;;;;;;5078840;28;20392;-67
2023/08/09 12:25:18;;;;;;;1.58;1.08;;;22.30;51.60;;;;;;5069288;28;20028;-66
2023/08/09 12:27:44;;;;;;;2.00;1.00;;;22.30;51.50;;;;;;5079017;28;20035;-66
2023/08/09 12:30:13;;;;;;;1.45;1.00;;;22.30;51.50;;;;;;5077744;28;20372;-67
2023/08/09 12:32:38;;;;;;;3.55;1.05;;;22.30;51.80;;;;;;5078618;28;20540;-67
2023/08/09 12:35:05;;;;;;;1.50;1.02;;;22.30;51.60;;;;;;5079351;28;20036;-67
2023/08/09 12:37:31;;;;;;;1.52;0.90;;;22.30;51.60;;;;;;5080735;28;20035;-67
2023/08/09 12:39:57;;;;;;;1.80;1.00;;;22.30;51.70;;;;;;5078731;28;20020;-67
2023/08/09 12:42:23;;;;;;;1.17;0.80;;;22.40;51.90;;;;;;5076802;28;20078;-67
2023/08/09 12:44:48;;;;;;;1.77;1.00;;;22.30;51.90;;;;;;5078031;28;20026;-67
2023/08/09 12:47:14;;;;;;;1.58;0.85;;;22.40;52.30;;;;;;5077799;28;20673;-67